createdAt,value
2016-08-20T12:41:37.488Z,1002.77
2016-08-20T12:42:37.527Z,1002.87
2016-08-20T12:43:37.557Z,1002.93
2016-08-20T12:44:37.591Z,1003.01
2016-08-20T12:45:37.632Z,1002.93
2016-08-20T12:46:37.657Z,1002.89
2016-08-20T12:47:37.694Z,1002.8
2016-08-20T12:48:37.727Z,1002.77
2016-08-20T12:49:37.764Z,1002.69
2016-08-20T12:50:37.798Z,1002.66
2016-08-20T12:51:37.832Z,1002.66
2016-08-20T12:52:37.866Z,1002.67
2016-08-20T13:11:44.457Z,1002.24
2016-08-20T13:12:44.497Z,1002.29
2016-08-20T13:13:44.524Z,1002.4
2016-08-20T13:14:44.561Z,1002.44
2016-08-20T13:15:44.606Z,1002.51
2016-08-20T13:16:44.636Z,1002.58
2016-08-20T13:17:44.663Z,1002.67
2016-08-20T13:18:44.699Z,1002.55
2016-08-20T13:19:44.740Z,1002.46
2016-08-20T13:20:44.777Z,1002.36
2016-08-20T13:21:44.804Z,1002.35
2016-08-20T13:22:44.839Z,1002.34
2016-08-20T13:23:44.876Z,1002.37
2016-08-20T13:24:44.911Z,1002.29
2016-08-20T13:25:44.946Z,1002.32
2016-08-20T13:26:44.986Z,1002.28
2016-08-20T13:27:45.017Z,1002.22
2016-08-20T13:28:45.051Z,1002.22
2016-08-20T13:29:45.136Z,1002.24
2016-08-20T13:30:45.123Z,1002.35
2016-08-20T13:31:45.159Z,1002.41
2016-08-20T13:32:45.193Z,1002.47
2016-08-20T13:33:45.230Z,1002.43
2016-08-20T13:34:45.264Z,1002.46
2016-08-20T13:35:45.303Z,1002.49
2016-08-20T13:36:45.336Z,1002.49
2016-08-20T13:37:45.373Z,1002.51
2016-08-20T13:38:45.409Z,1002.45
2016-08-20T13:39:45.450Z,1002.49
2016-08-20T13:40:45.481Z,1002.56
2016-08-20T13:41:45.517Z,1002.54
2016-08-20T13:42:45.553Z,1002.55
2016-08-20T13:43:45.587Z,1002.58
2016-08-20T13:44:45.625Z,1002.53
2016-08-20T13:45:45.662Z,1002.54
2016-08-20T13:46:45.698Z,1002.56
2016-08-20T13:47:45.730Z,1002.51
2016-08-20T13:48:45.769Z,1002.51
2016-08-20T13:49:45.805Z,1002.51
2016-08-20T13:50:45.840Z,1002.46
2016-08-20T13:51:45.875Z,1002.49
2016-08-20T13:52:45.913Z,1002.45
2016-08-20T13:53:45.948Z,1002.49
2016-08-20T13:54:45.983Z,1002.5
2016-08-20T13:55:46.020Z,1002.48
2016-08-20T13:56:46.057Z,1002.47
2016-08-20T13:57:46.092Z,1002.45
2016-08-20T13:58:46.128Z,1002.45
2016-08-20T13:59:46.162Z,1002.46
2016-08-20T14:00:46.200Z,1002.43
2016-08-20T14:01:46.233Z,1002.43
2016-08-20T14:02:46.271Z,1002.41
2016-08-20T14:03:46.306Z,1002.4
2016-08-20T14:04:46.343Z,1002.37
2016-08-20T14:05:46.377Z,1002.4
2016-08-20T14:06:46.422Z,1002.42
2016-08-20T14:07:46.461Z,1002.44
2016-08-20T14:08:46.488Z,1002.45
2016-08-20T14:09:46.522Z,1002.47
2016-08-20T14:10:46.561Z,1002.46
2016-08-20T14:11:46.601Z,1002.47
2016-08-20T14:12:46.631Z,1002.49
2016-08-20T14:13:46.665Z,1002.52
2016-08-20T14:14:46.701Z,1002.47
2016-08-20T14:15:46.737Z,1002.5
2016-08-20T14:16:46.771Z,1002.46
2016-08-20T14:17:46.808Z,1002.53
2016-08-20T14:18:46.844Z,1002.48
2016-08-20T14:19:46.880Z,1002.53
2016-08-20T14:20:46.916Z,1002.5
2016-08-20T14:21:46.951Z,1002.46
2016-08-20T14:22:46.988Z,1002.47
2016-08-20T14:23:47.024Z,1002.48
2016-08-20T14:24:47.058Z,1002.43
2016-08-20T14:25:47.096Z,1002.42
2016-08-20T14:26:47.130Z,1002.38
2016-08-20T14:27:47.207Z,1002.39
2016-08-20T14:28:47.197Z,1002.4
2016-08-20T14:29:47.289Z,1002.39
2016-08-20T14:30:47.271Z,1002.37
2016-08-20T14:31:47.313Z,1002.39
2016-08-20T14:32:47.340Z,1002.39
2016-08-20T14:33:47.377Z,1002.44
2016-08-20T14:34:47.417Z,1002.49
2016-08-20T14:35:47.451Z,1002.45
2016-08-20T14:36:47.482Z,1002.44
2016-08-20T14:37:47.518Z,1002.49
2016-08-20T14:38:47.556Z,1002.51
